Time;durP1;ratioP1;P1;durP2;ratioP2;P2;SDS_P1;SDS_P2;PMS_P1;PMS_P2;Temp;Humidity;BMP_temperature;BMP_pressure;BME280_temperature;BME280_humidity;BME280_pressure;Samples;Min_cycle;Max_cycle;Signal;HPM_P1;HPM_P2
2024/01/02 00:01:37;;;;;;;0.10;0.10;;;6.60;99.90;;;;;;5076540;28;20025;-76
2024/01/02 00:04:03;;;;;;;0.10;0.10;;;9.20;99.90;;;;;;5056872;28;20702;-76
2024/01/02 00:06:29;;;;;;;0.10;0.10;;;6.70;99.90;;;;;;5079180;28;20039;-76
2024/01/02 00:08:55;;;;;;;0.20;0.20;;;6.70;99.90;;;;;;5077709;28;20570;-76
2024/01/02 00:11:21;;;;;;;0.10;0.10;;;6.70;99.90;;;;;;5070788;28;20710;-76
2024/01/02 00:13:47;;;;;;;0.10;0.10;;;6.70;99.90;;;;;;5073855;28;20667;-76
2024/01/02 00:16:14;;;;;;;0.10;0.10;;;6.70;99.90;;;;;;5077760;28;20016;-76
2024/01/02 00:18:39;;;;;;;0.20;0.20;;;6.80;99.90;;;;;;5077129;28;20017;-76
2024/01/02 00:21:07;;;;;;;0.10;0.10;;;6.80;99.90;;;;;;5078593;28;20071;-76
2024/01/02 00:23:34;;;;;;;0.10;0.10;;;6.90;99.90;;;;;;5081796;28;20111;-76
2024/01/02 00:25:59;;;;;;;0.10;0.10;;;6.90;99.90;;;;;;5082181;28;20021;-76
2024/01/02 00:28:28;;;;;;;26.98;25.13;;;6.70;99.90;;;;;;5082209;28;20493;-76
2024/01/02 00:30:54;;;;;;;0.38;0.38;;;7.00;99.90;;;;;;5076458;28;20041;-76
2024/01/02 00:33:20;;;;;;;0.20;0.20;;;7.00;99.90;;;;;;5080255;28;20023;-75
2024/01/02 00:35:48;;;;;;;0.10;0.10;;;7.10;99.90;;;;;;5062096;28;20046;-76
2024/01/02 00:38:15;;;;;;;0.63;0.63;;;7.10;99.90;;;;;;5080673;28;20046;-77
2024/01/02 00:40:40;;;;;;;0.20;0.20;;;7.10;99.90;;;;;;5087030;28;20017;-76
2024/01/02 00:43:17;;;;;;;0.57;0.57;;;7.10;99.90;;;;;;5086180;28;20028;-76
2024/01/02 00:45:43;;;;;;;0.10;0.10;;;7.20;99.90;;;;;;5086599;28;20060;-77
2024/01/02 00:48:08;;;;;;;0.45;0.45;;;7.20;99.90;;;;;;5077133;28;20032;-76
2024/01/02 00:50:42;;;;;;;0.15;0.15;;;7.20;99.90;;;;;;5058437;28;20025;-76
2024/01/02 00:53:08;;;;;;;0.32;0.32;;;7.20;99.90;;;;;;5079926;28;20037;-77
2024/01/02 00:55:33;;;;;;;0.10;0.10;;;7.20;99.90;;;;;;5066349;28;20089;-76
2024/01/02 00:57:59;;;;;;;0.20;0.20;;;7.30;99.90;;;;;;5065833;28;20048;-76
2024/01/02 01:00:48;;;;;;;0.17;0.17;;;7.30;99.90;;;;;;5079715;28;20698;-77
2024/01/02 01:03:16;;;;;;;0.10;0.10;;;7.30;99.90;;;;;;5017130;28;20034;-77
2024/01/02 01:05:42;;;;;;;1.45;1.45;;;7.40;99.90;;;;;;5022048;28;20048;-77
2024/01/02 01:08:07;;;;;;;1.15;1.15;;;7.40;99.90;;;;;;5020112;28;20523;-76
2024/01/02 01:10:33;;;;;;;0.20;0.20;;;7.40;99.90;;;;;;5023536;28;20026;-78
2024/01/02 01:13:00;;;;;;;8.63;8.15;;;7.40;99.90;;;;;;5020827;28;20046;-77
2024/01/02 01:15:26;;;;;;;1.48;1.48;;;7.40;99.90;;;;;;5016981;28;20084;-76
2024/01/02 01:17:52;;;;;;;0.10;0.10;;;7.40;99.90;;;;;;5014656;28;20217;-77
2024/01/02 01:20:18;;;;;;;0.20;0.20;;;7.40;99.90;;;;;;5013124;28;20111;-75
2024/01/02 01:22:44;;;;;;;3.90;3.80;;;7.40;99.90;;;;;;5015918;28;20042;-77
2024/01/02 01:25:10;;;;;;;0.10;0.10;;;7.40;99.90;;;;;;5014407;28;20110;-75
2024/01/02 01:27:38;;;;;;;0.10;0.10;;;7.40;99.90;;;;;;4997349;28;20026;-77
2024/01/02 01:30:05;;;;;;;1.77;1.70;;;7.40;99.90;;;;;;5022336;28;20053;-76
2024/01/02 01:32:30;;;;;;;0.10;0.10;;;7.40;99.90;;;;;;5019513;28;20030;-76
2024/01/02 01:34:56;;;;;;;2.55;2.45;;;7.40;99.90;;;;;;5051883;28;20036;-77
2024/01/02 01:37:22;;;;;;;1.00;0.98;;;7.40;99.90;;;;;;5080500;28;20052;-78
2024/01/02 01:39:48;;;;;;;1.73;1.65;;;7.40;99.90;;;;;;5083164;28;20017;-77
2024/01/02 01:42:13;;;;;;;21.92;20.27;;;7.40;99.90;;;;;;5081581;28;20004;-76
2024/01/02 01:44:42;;;;;;;0.32;0.32;;;7.40;99.90;;;;;;5083107;28;20027;-77
2024/01/02 01:47:10;;;;;;;0.10;0.10;;;7.40;99.90;;;;;;5086322;28;20004;-77
2024/01/02 01:49:36;;;;;;;0.28;0.28;;;7.30;99.90;;;;;;5050751;28;20020;-76
2024/01/02 01:52:03;;;;;;;0.28;0.28;;;7.30;99.90;;;;;;5085243;28;20028;-76
2024/01/02 01:54:33;;;;;;;0.25;0.25;;;7.30;99.90;;;;;;5067428;28;20001;-77
2024/01/02 01:57:02;;;;;;;0.30;0.30;;;7.40;99.90;;;;;;5083786;28;20036;-77
2024/01/02 01:59:31;;;;;;;0.20;0.20;;;7.40;99.90;;;;;;5061373;28;20028;-76
2024/01/02 02:02:09;;;;;;;0.20;0.20;;;7.40;99.90;;;;;;5079733;28;20036;-76
2024/01/02 02:04:50;;;;;;;2.95;2.75;;;7.40;99.90;;;;;;5084571;28;20036;-77
2024/01/02 02:07:19;;;;;;;0.17;0.17;;;7.40;99.90;;;;;;5062306;28;20024;-76
2024/01/02 02:09:45;;;;;;;0.20;0.20;;;7.40;99.90;;;;;;5083302;28;20040;-77
2024/01/02 02:12:11;;;;;;;0.10;0.10;;;7.40;99.90;;;;;;5081354;28;20682;-76
2024/01/02 02:14:41;;;;;;;0.20;0.20;;;7.40;99.90;;;;;;5080921;28;20117;-77
2024/01/02 02:17:18;;;;;;;0.52;0.52;;;7.20;99.90;;;;;;5083973;28;20352;-79
2024/01/02 02:19:43;;;;;;;0.20;0.20;;;7.40;99.90;;;;;;5061663;28;20032;-76
2024/01/02 02:22:12;;;;;;;0.20;0.20;;;7.40;99.90;;;;;;5074444;28;20013;-78
2024/01/02 02:24:45;;;;;;;0.20;0.20;;;7.40;99.90;;;;;;5057994;28;20020;-76
2024/01/02 02:27:12;;;;;;;3.92;3.83;;;7.40;99.90;;;;;;5080740;28;20033;-77
2024/01/02 02:29:38;;;;;;;0.10;0.10;;;7.40;99.90;;;;;;5077682;28;20662;-79
2024/01/02 02:32:04;;;;;;;0.10;0.10;;;7.40;99.90;;;;;;5055571;28;20050;-76
2024/01/02 02:34:30;;;;;;;0.20;0.20;;;7.40;99.90;;;;;;5055624;28;20032;-77
2024/01/02 02:36:55;;;;;;;0.20;0.20;;;7.30;99.90;;;;;;5071854;28;20044;-76
2024/01/02 02:39:21;;;;;;;0.10;0.10;;;7.30;99.90;;;;;;5075387;28;20024;-76
2024/01/02 02:41:47;;;;;;;0.20;0.20;;;7.20;99.90;;;;;;5056684;28;20023;-76
2024/01/02 02:44:13;;;;;;;0.20;0.20;;;7.30;99.90;;;;;;5069381;28;20712;-76
2024/01/02 02:46:39;;;;;;;0.10;0.10;;;7.30;99.90;;;;;;5067788;28;20025;-76
2024/01/02 02:49:05;;;;;;;0.20;0.20;;;7.30;99.90;;;;;;5068088;28;20024;-76
2024/01/02 02:51:32;;;;;;;0.17;0.17;;;7.30;99.90;;;;;;5049996;28;20080;-76
2024/01/02 02:54:04;;;;;;;0.77;0.77;;;7.30;99.90;;;;;;5053854;28;20025;-77
2024/01/02 02:56:31;;;;;;;0.20;0.20;;;;;;;;;;5067880;28;20727;-76
2024/01/02 02:58:59;;;;;;;0.20;0.20;;;7.30;99.90;;;;;;5069310;28;20025;-77
2024/01/02 03:01:25;;;;;;;0.20;0.20;;;;;;;;;;5061648;23;20143;-76
2024/01/02 03:03:51;;;;;;;0.28;0.28;;;7.30;99.90;;;;;;5073600;28;20040;-76
2024/01/02 03:06:17;;;;;;;0.13;0.13;;;7.30;99.90;;;;;;5054728;28;20602;-77
2024/01/02 03:08:46;;;;;;;0.10;0.10;;;7.30;99.90;;;;;;5074369;28;20025;-77
2024/01/02 03:11:11;;;;;;;0.20;0.20;;;8.00;99.90;;;;;;5072784;28;20652;-76
2024/01/02 03:13:37;;;;;;;0.20;0.20;;;7.10;99.90;;;;;;5061969;28;20015;-77
2024/01/02 03:16:03;;;;;;;0.55;0.45;;;7.10;99.90;;;;;;5078458;28;20039;-76
2024/01/02 03:18:29;;;;;;;0.20;0.20;;;7.10;99.90;;;;;;5083442;28;20021;-77
2024/01/02 03:20:56;;;;;;;0.10;0.10;;;7.10;99.90;;;;;;5083334;28;20051;-76
2024/01/02 03:23:21;;;;;;;0.20;0.20;;;7.20;99.90;;;;;;5085449;28;20106;-77
2024/01/02 03:25:48;;;;;;;13.40;12.85;;;7.20;99.90;;;;;;5074781;28;20033;-76
2024/01/02 03:28:15;;;;;;;0.20;0.20;;;7.20;99.90;;;;;;5076385;28;20021;-76
2024/01/02 03:30:49;;;;;;;0.10;0.10;;;6.50;99.90;;;;;;5076417;28;20028;-76
2024/01/02 03:33:14;;;;;;;0.30;0.30;;;8.00;99.90;;;;;;5085417;28;20021;-76
2024/01/02 03:35:41;;;;;;;0.20;0.20;;;7.20;99.90;;;;;;5060146;28;20021;-76
2024/01/02 03:38:17;;;;;;;0.75;0.75;;;7.20;99.90;;;;;;5076702;28;20017;-76
2024/01/02 03:40:43;;;;;;;0.20;0.20;;;7.30;99.90;;;;;;5074524;28;20031;-76
2024/01/02 03:43:08;;;;;;;0.20;0.20;;;7.30;99.90;;;;;;5072112;28;20049;-76
2024/01/02 03:45:34;;;;;;;0.20;0.20;;;7.30;99.90;;;;;;5072356;28;20047;-76
2024/01/02 03:48:00;;;;;;;0.20;0.20;;;7.30;99.90;;;;;;5073077;28;20690;-76
2024/01/02 03:50:26;;;;;;;0.20;0.20;;;7.30;99.90;;;;;;5073471;28;20052;-80
2024/01/02 03:52:52;;;;;;;0.45;0.45;;;7.30;99.90;;;;;;5066413;28;20024;-77
2024/01/02 03:55:18;;;;;;;0.20;0.20;;;7.30;99.90;;;;;;5075970;28;20046;-76
2024/01/02 03:58:01;;;;;;;5.90;5.68;;;7.20;99.90;;;;;;5083569;28;20024;-78
2024/01/02 04:00:27;;;;;;;0.20;0.20;;;7.20;99.90;;;;;;5066623;28;20017;-77
2024/01/02 04:03:19;;;;;;;0.10;0.10;;;7.20;99.90;;;;;;5087084;28;20662;-75
2024/01/02 04:05:45;;;;;;;0.20;0.20;;;7.00;99.90;;;;;;5083672;28;20032;-77
2024/01/02 04:08:11;;;;;;;0.20;0.20;;;7.20;99.90;;;;;;5088000;28;20031;-76
2024/01/02 04:10:39;;;;;;;0.20;0.20;;;7.20;99.90;;;;;;5067935;28;20048;-77
2024/01/02 04:13:14;;;;;;;0.20;0.20;;;7.20;99.90;;;;;;5069429;28;20020;-76
2024/01/02 04:15:40;;;;;;;0.10;0.10;;;8.60;99.90;;;;;;5086516;28;20721;-76
2024/01/02 04:18:06;;;;;;;0.90;0.90;;;7.20;99.90;;;;;;5077884;28;20044;-76
2024/01/02 04:20:36;;;;;;;1.95;1.88;;;;;;;;;;5078434;28;20024;-76
2024/01/02 04:23:02;;;;;;;0.20;0.20;;;7.20;99.90;;;;;;5080911;28;20017;-76
2024/01/02 04:25:29;;;;;;;0.10;0.10;;;7.20;99.90;;;;;;5082057;28;20104;-77
2024/01/02 04:28:01;;;;;;;0.20;0.20;;;7.10;99.90;;;;;;5080250;28;20031;-76
2024/01/02 04:30:34;;;;;;;0.20;0.20;;;7.10;99.90;;;;;;5079651;28;20020;-79
2024/01/02 04:33:00;;;;;;;0.20;0.20;;;7.10;99.90;;;;;;5066470;28;20554;-77
2024/01/02 04:35:26;;;;;;;0.15;0.15;;;7.10;99.90;;;;;;5086661;28;20017;-77
2024/01/02 04:37:51;;;;;;;0.20;0.20;;;7.10;99.90;;;;;;5020471;28;20859;-77
2024/01/02 04:40:23;;;;;;;0.20;0.20;;;7.10;99.90;;;;;;5022131;28;20082;-76
2024/01/02 04:42:51;;;;;;;0.20;0.20;;;7.10;99.90;;;;;;5018006;28;20681;-77
2024/01/02 04:45:17;;;;;;;21.98;20.90;;;7.10;99.90;;;;;;5008046;28;20101;-76
2024/01/02 04:47:42;;;;;;;0.10;0.10;;;7.10;99.90;;;;;;5025811;28;20029;-76
2024/01/02 04:50:08;;;;;;;0.20;0.20;;;7.10;99.90;;;;;;5026627;28;20025;-76
2024/01/02 04:52:35;;;;;;;0.20;0.20;;;7.10;99.90;;;;;;5017106;28;20078;-76
2024/01/02 04:55:09;;;;;;;0.20;0.20;;;7.10;99.90;;;;;;5006361;28;20045;-77
2024/01/02 04:57:35;;;;;;;0.20;0.20;;;7.10;99.90;;;;;;4997828;28;20181;-76
2024/01/02 05:00:27;;;;;;;0.20;0.20;;;7.10;99.90;;;;;;5018736;28;20029;-78
2024/01/02 05:02:53;;;;;;;0.10;0.10;;;7.10;99.90;;;;;;5020756;28;20038;-76
2024/01/02 05:05:19;;;;;;;0.17;0.17;;;7.10;99.90;;;;;;5016789;28;20041;-75
2024/01/02 05:07:45;;;;;;;0.20;0.20;;;7.10;99.90;;;;;;5023550;28;20014;-78
2024/01/02 05:10:11;;;;;;;0.20;0.20;;;7.10;99.90;;;;;;5081211;28;20541;-76
2024/01/02 05:12:37;;;;;;;0.20;0.20;;;7.10;99.90;;;;;;5080863;28;20028;-77
2024/01/02 05:15:12;;;;;;;0.20;0.20;;;7.10;99.90;;;;;;5084098;28;20653;-78
2024/01/02 05:17:37;;;;;;;0.10;0.10;;;7.10;99.90;;;;;;5067415;28;20028;-78
2024/01/02 05:20:04;;;;;;;0.10;0.10;;;7.10;99.90;;;;;;5083004;28;20031;-75
2024/01/02 05:23:16;;;;;;;0.20;0.20;;;7.10;99.90;;;;;;5076227;28;20017;-80
2024/01/02 05:25:47;;;;;;;0.20;0.20;;;7.10;99.90;;;;;;4978045;28;20035;-77
2024/01/02 05:28:33;;;;;;;1.30;1.30;;;7.20;99.90;;;;;;4974689;28;20045;-76
2024/01/02 05:31:02;;;;;;;0.20;0.20;;;;;;;;;;4975665;28;20011;-76
2024/01/02 05:33:30;;;;;;;0.20;0.20;;;;;;;;;;4973877;28;20058;-76
2024/01/02 05:36:00;;;;;;;0.10;0.10;;;7.10;99.90;;;;;;4976593;28;20015;-76
2024/01/02 05:38:28;;;;;;;0.20;0.20;;;7.30;99.90;;;;;;5034569;23;20062;-76
2024/01/02 05:40:54;;;;;;;0.20;0.20;;;7.10;99.90;;;;;;5039053;28;20114;-76
2024/01/02 05:43:20;;;;;;;0.15;0.15;;;7.10;99.90;;;;;;5041220;28;20696;-76
2024/01/02 05:45:45;;;;;;;0.20;0.20;;;7.00;99.90;;;;;;5041349;28;20029;-76
2024/01/02 05:48:11;;;;;;;0.10;0.10;;;7.10;99.90;;;;;;5040697;28;20001;-76
2024/01/02 05:50:37;;;;;;;0.10;0.10;;;7.00;99.90;;;;;;5041215;23;20624;-76
2024/01/02 05:53:03;;;;;;;0.20;0.20;;;7.10;99.90;;;;;;5044662;28;21291;-77
2024/01/02 05:55:30;;;;;;;0.10;0.10;;;8.80;99.90;;;;;;5051997;28;20032;-76
2024/01/02 05:57:59;;;;;;;0.10;0.10;;;7.10;99.90;;;;;;5050887;28;20021;-76
2024/01/02 06:00:29;;;;;;;0.20;0.20;;;7.10;99.90;;;;;;5053123;28;20112;-77
2024/01/02 06:02:56;;;;;;;0.63;0.63;;;7.10;99.90;;;;;;5054591;28;20025;-76
2024/01/02 06:05:31;;;;;;;0.20;0.20;;;7.10;99.90;;;;;;5057603;28;20049;-76
2024/01/02 06:07:57;;;;;;;0.10;0.10;;;7.00;99.90;;;;;;5047310;28;20017;-77
2024/01/02 06:10:24;;;;;;;1.75;1.65;;;7.00;99.90;;;;;;5075458;28;20055;-76
2024/01/02 06:12:55;;;;;;;0.30;0.30;;;7.10;99.90;;;;;;5075186;28;20009;-76
2024/01/02 06:15:25;;;;;;;0.10;0.10;;;7.10;99.90;;;;;;5052543;23;20049;-76
2024/01/02 06:17:52;;;;;;;0.20;0.20;;;7.10;99.90;;;;;;5058497;28;20033;-77
2024/01/02 06:20:18;;;;;;;0.75;0.75;;;7.00;99.90;;;;;;5036028;28;20713;-77
2024/01/02 06:22:45;;;;;;;0.20;0.20;;;7.10;99.90;;;;;;5050152;28;20483;-77
2024/01/02 06:25:11;;;;;;;0.20;0.20;;;7.10;99.90;;;;;;5056057;28;20064;-76
2024/01/02 06:27:44;;;;;;;10.30;9.93;;;7.10;99.90;;;;;;5052315;28;20029;-77
2024/01/02 06:30:15;;;;;;;0.28;0.28;;;7.10;99.90;;;;;;5051389;28;20056;-76
2024/01/02 06:32:40;;;;;;;0.20;0.20;;;7.10;99.90;;;;;;5018856;28;20491;-76
2024/01/02 06:35:08;;;;;;;0.20;0.20;;;7.10;99.90;;;;;;5055556;28;20043;-76
2024/01/02 06:37:34;;;;;;;0.20;0.20;;;7.10;99.90;;;;;;5051942;28;20051;-76
2024/01/02 06:40:00;;;;;;;0.20;0.20;;;7.10;99.90;;;;;;5052960;28;20013;-76
2024/01/02 06:42:28;;;;;;;0.32;0.32;;;7.10;99.90;;;;;;5051508;28;20199;-76
2024/01/02 06:44:54;;;;;;;0.20;0.20;;;7.10;99.90;;;;;;5050677;28;20029;-76
2024/01/02 06:47:19;;;;;;;0.20;0.20;;;7.20;99.90;;;;;;5051710;28;20526;-76
2024/01/02 06:49:50;;;;;;;1.40;1.40;;;7.20;99.90;;;;;;5051866;28;20052;-76
2024/01/02 06:52:16;;;;;;;5.32;5.13;;;7.10;99.90;;;;;;5035511;28;20022;-76
2024/01/02 06:54:41;;;;;;;0.20;0.20;;;7.10;99.90;;;;;;5029743;28;20044;-76
2024/01/02 06:57:08;;;;;;;0.20;0.20;;;7.10;99.90;;;;;;5025903;28;20040;-76
2024/01/02 06:59:36;;;;;;;80.63;73.03;;;7.20;99.90;;;;;;5028163;28;20109;-76
2024/01/02 07:02:07;;;;;;;0.30;0.30;;;7.20;99.90;;;;;;5030377;28;20020;-76
2024/01/02 07:04:46;;;;;;;1.38;1.38;;;7.20;99.90;;;;;;5033119;28;20028;-76
2024/01/02 07:07:12;;;;;;;0.20;0.20;;;7.20;99.90;;;;;;5013534;28;20033;-76
2024/01/02 07:09:37;;;;;;;0.10;0.10;;;7.20;99.90;;;;;;5032958;28;20156;-76
2024/01/02 07:12:04;;;;;;;0.20;0.20;;;7.20;99.90;;;;;;5032851;28;20561;-76
2024/01/02 07:14:30;;;;;;;0.20;0.20;;;7.30;99.90;;;;;;5034117;28;20040;-77
2024/01/02 07:16:59;;;;;;;0.17;0.17;;;7.20;99.90;;;;;;5014864;28;20060;-76
2024/01/02 07:19:26;;;;;;;0.40;0.40;;;7.30;99.90;;;;;;5034045;28;20048;-76
2024/01/02 07:21:52;;;;;;;0.82;0.82;;;7.40;99.90;;;;;;5040585;28;20069;-76
2024/01/02 07:24:17;;;;;;;0.10;0.10;;;7.20;99.90;;;;;;5042391;28;20600;-76
2024/01/02 07:26:44;;;;;;;0.20;0.20;;;;;;;;;;5043694;28;20080;-76
2024/01/02 07:29:09;;;;;;;0.17;0.17;;;7.40;99.90;;;;;;5045691;28;20032;-76
2024/01/02 07:31:36;;;;;;;21.35;10.23;;;7.40;99.90;;;;;;5047156;28;20105;-76
2024/01/02 07:34:02;;;;;;;0.20;0.20;;;7.50;99.90;;;;;;5041480;28;20028;-76
2024/01/02 07:36:30;;;;;;;0.20;0.20;;;7.50;99.90;;;;;;5041005;28;20025;-75
2024/01/02 07:39:00;;;;;;;6.20;5.93;;;7.50;99.90;;;;;;5041177;28;20017;-76
2024/01/02 07:41:26;;;;;;;0.45;0.45;;;7.60;99.90;;;;;;5041292;28;20431;-76
2024/01/02 07:43:57;;;;;;;0.10;0.10;;;7.60;99.90;;;;;;5041670;28;20083;-75
2024/01/02 07:46:24;;;;;;;0.20;0.20;;;7.70;99.90;;;;;;5042876;28;20037;-75
2024/01/02 07:49:03;;;;;;;0.20;0.20;;;7.60;99.90;;;;;;5040455;28;20676;-75
2024/01/02 07:51:30;;;;;;;0.30;0.30;;;7.60;99.90;;;;;;5042906;28;20605;-77
2024/01/02 07:53:57;;;;;;;0.20;0.20;;;;;;;;;;5043048;28;20033;-75
2024/01/02 07:56:26;;;;;;;4.68;4.57;;;7.40;99.90;;;;;;5038689;28;20391;-75
2024/01/02 07:58:51;;;;;;;0.20;0.20;;;7.50;99.90;;;;;;5036547;28;20013;-76
2024/01/02 08:01:17;;;;;;;0.10;0.10;;;7.50;99.90;;;;;;5033281;28;20070;-75
2024/01/02 08:03:47;;;;;;;0.20;0.20;;;7.50;99.90;;;;;;5044871;28;20053;-76
2024/01/02 08:06:15;;;;;;;7.18;6.88;;;7.60;99.90;;;;;;5037109;28;20022;-76
2024/01/02 08:08:46;;;;;;;0.20;0.20;;;7.60;99.90;;;;;;5046329;28;20022;-76
2024/01/02 08:11:11;;;;;;;0.20;0.20;;;7.70;99.90;;;;;;5038451;28;20028;-76
2024/01/02 08:13:38;;;;;;;0.57;0.57;;;7.70;99.90;;;;;;5033449;28;20649;-75
2024/01/02 08:16:10;;;;;;;0.20;0.20;;;7.70;99.90;;;;;;5040282;28;20083;-76
2024/01/02 08:18:43;;;;;;;0.13;0.13;;;;;;;;;;5037074;28;20033;-77
2024/01/02 08:21:09;;;;;;;2.47;2.38;;;7.90;99.90;;;;;;5018538;28;20022;-76
2024/01/02 08:23:38;;;;;;;0.50;0.50;;;8.00;99.90;;;;;;5040668;28;20052;-76
2024/01/02 08:26:13;;;;;;;0.20;0.20;;;8.10;99.90;;;;;;5043867;28;20021;-76
2024/01/02 08:28:41;;;;;;;0.20;0.20;;;8.00;99.90;;;;;;5044161;28;20056;-76
2024/01/02 08:31:07;;;;;;;0.20;0.20;;;8.20;99.90;;;;;;5028653;28;20100;-76
2024/01/02 08:33:36;;;;;;;0.30;0.30;;;8.20;99.90;;;;;;5036364;28;20111;-75
2024/01/02 08:36:02;;;;;;;1.25;1.17;;;8.50;99.90;;;;;;5041314;28;20439;-76
2024/01/02 08:38:32;;;;;;;0.20;0.20;;;8.40;99.90;;;;;;5036873;28;20599;-76
2024/01/02 08:40:58;;;;;;;0.20;0.20;;;8.50;99.90;;;;;;5039763;28;20026;-76
2024/01/02 08:43:24;;;;;;;0.77;0.77;;;8.50;99.90;;;;;;5038646;28;20014;-76
2024/01/02 08:45:50;;;;;;;0.20;0.20;;;8.60;99.90;;;;;;5016305;28;20127;-76
2024/01/02 08:48:16;;;;;;;0.20;0.20;;;7.60;99.90;;;;;;5029906;28;20022;-76
2024/01/02 08:50:42;;;;;;;0.20;0.20;;;8.40;99.90;;;;;;5026305;28;20025;-75
2024/01/02 08:53:15;;;;;;;0.20;0.20;;;8.40;99.90;;;;;;5027317;28;20021;-76
2024/01/02 08:55:41;;;;;;;0.10;0.10;;;10.10;99.90;;;;;;5008130;28;20024;-75
2024/01/02 08:58:12;;;;;;;0.28;0.28;;;9.90;99.90;;;;;;5048108;28;20049;-75
2024/01/02 09:00:47;;;;;;;0.20;0.20;;;9.90;99.90;;;;;;5032916;28;20025;-75
2024/01/02 09:03:14;;;;;;;0.20;0.20;;;9.50;99.90;;;;;;5045454;28;20036;-75
2024/01/02 09:05:40;;;;;;;0.20;0.20;;;9.30;99.90;;;;;;5028094;28;20052;-76
2024/01/02 09:08:06;;;;;;;0.20;0.20;;;9.30;99.90;;;;;;5039894;28;20022;-75
2024/01/02 09:10:32;;;;;;;28.98;25.80;;;9.40;99.90;;;;;;5048133;28;20017;-75
2024/01/02 09:12:58;;;;;;;0.20;0.20;;;9.30;99.90;;;;;;5058580;28;20024;-75
2024/01/02 09:15:25;;;;;;;0.20;0.20;;;9.20;99.90;;;;;;5047946;28;20046;-77
2024/01/02 09:17:59;;;;;;;0.20;0.20;;;9.40;99.90;;;;;;5071152;28;20005;-75
2024/01/02 09:20:26;;;;;;;0.20;0.20;;;9.40;99.90;;;;;;5074463;28;20013;-74
2024/01/02 09:22:52;;;;;;;0.20;0.20;;;9.60;99.90;;;;;;5064546;28;20687;-77
2024/01/02 09:25:25;;;;;;;0.20;0.20;;;9.70;99.90;;;;;;5066669;28;20025;-78
2024/01/02 09:27:57;;;;;;;0.20;0.20;;;9.70;99.90;;;;;;5063003;28;20029;-76
2024/01/02 09:30:25;;;;;;;0.20;0.20;;;9.90;99.90;;;;;;5060796;28;20507;-77
2024/01/02 09:32:51;;;;;;;0.20;0.20;;;10.00;99.90;;;;;;5059150;28;20029;-76
2024/01/02 09:35:17;;;;;;;0.20;0.20;;;10.10;99.90;;;;;;5057785;28;20480;-76
2024/01/02 09:37:44;;;;;;;0.20;0.20;;;10.10;99.90;;;;;;5059605;28;20044;-76
2024/01/02 09:40:47;;;;;;;0.20;0.20;;;10.10;99.90;;;;;;5047512;28;20033;-75
2024/01/02 09:43:33;;;;;;;0.20;0.20;;;10.10;99.90;;;;;;5047780;28;20013;-76
2024/01/02 09:46:22;;;;;;;0.20;0.20;;;10.10;99.90;;;;;;5032033;28;20025;-76
2024/01/02 09:49:30;;;;;;;0.20;0.20;;;10.30;99.90;;;;;;5053891;28;20013;-76
2024/01/02 09:52:22;;;;;;;0.20;0.20;;;10.30;99.90;;;;;;4948350;28;20019;-76
2024/01/02 09:55:01;;;;;;;0.20;0.20;;;10.50;99.90;;;;;;4950223;29;20651;-75
2024/01/02 09:57:40;;;;;;;0.20;0.20;;;10.40;99.90;;;;;;4953379;28;20540;-76
2024/01/02 10:00:36;;;;;;;0.30;0.30;;;10.50;99.90;;;;;;4953462;29;20063;-76
2024/01/02 10:04:01;;;;;;;0.20;0.20;;;10.70;99.90;;;;;;4952572;29;20043;-76
2024/01/02 10:07:07;;;;;;;14.02;13.10;;;11.50;99.90;;;;;;4914483;29;20107;-76
2024/01/02 10:09:50;;;;;;;0.20;0.20;;;10.90;99.90;;;;;;4914664;29;20179;-77
2024/01/02 10:12:45;;;;;;;0.25;0.25;;;11.00;99.90;;;;;;4914290;29;20028;-75
2024/01/02 10:15:20;;;;;;;0.20;0.20;;;11.20;99.90;;;;;;4916413;29;20068;-76
2024/01/02 10:18:11;;;;;;;0.20;0.20;;;11.30;99.90;;;;;;4916187;29;20027;-76
2024/01/02 10:21:16;;;;;;;0.20;0.20;;;11.50;99.90;;;;;;4915608;29;20036;-76
2024/01/02 10:24:00;;;;;;;0.20;0.20;;;11.60;99.90;;;;;;4989862;28;20011;-75
2024/01/02 10:26:30;;;;;;;1.13;1.13;;;11.80;99.90;;;;;;5000719;28;20100;-76
2024/01/02 10:29:09;;;;;;;0.20;0.20;;;11.90;99.90;;;;;;4996062;28;20088;-76
2024/01/02 10:32:24;;;;;;;0.82;0.82;;;11.80;99.90;;;;;;4991225;28;20056;-78
2024/01/02 10:35:05;;;;;;;0.20;0.20;;;11.80;99.90;;;;;;4922144;29;20454;-78
2024/01/02 10:37:39;;;;;;;2.13;2.03;;;11.70;99.90;;;;;;4920886;29;20119;-78
2024/01/02 10:40:19;;;;;;;0.55;0.55;;;11.70;99.90;;;;;;4927951;28;20743;-81
2024/01/02 10:43:03;;;;;;;2.13;2.05;;;11.90;99.90;;;;;;4939365;29;20184;-77
2024/01/02 10:45:52;;;;;;;0.30;0.30;;;12.00;99.90;;;;;;4939464;29;20395;-80
2024/01/02 10:48:42;;;;;;;0.20;0.20;;;11.90;99.90;;;;;;4901316;29;20038;-77
2024/01/02 10:51:13;;;;;;;0.20;0.20;;;12.20;99.90;;;;;;4841848;29;20030;-79
2024/01/02 10:54:03;;;;;;;0.10;0.10;;;12.30;99.90;;;;;;4826172;29;20151;-86
2024/01/02 10:56:29;;;;;;;0.20;0.20;;;12.50;99.90;;;;;;4825492;29;20037;-85
2024/01/02 10:59:03;;;;;;;0.20;0.20;;;12.60;99.90;;;;;;4825174;29;20030;-75
2024/01/02 11:01:33;;;;;;;0.30;0.30;;;12.50;99.90;;;;;;4826198;29;20042;-84
2024/01/02 11:04:27;;;;;;;0.20;0.20;;;12.60;99.90;;;;;;4828841;29;20026;-85
2024/01/02 11:07:05;;;;;;;0.75;0.75;;;12.40;99.90;;;;;;4830354;29;20058;-91
2024/01/02 11:09:48;;;;;;;0.20;0.20;;;12.40;99.90;;;;;;4828988;29;20726;-85
2024/01/02 11:12:16;;;;;;;0.20;0.20;;;12.60;99.90;;;;;;4848547;29;20045;-80
2024/01/02 11:14:44;;;;;;;0.20;0.20;;;12.90;99.90;;;;;;4848082;29;20053;-78
2024/01/02 11:17:12;;;;;;;0.50;0.50;;;12.70;99.90;;;;;;4852685;29;20022;-89
2024/01/02 11:19:54;;;;;;;0.20;0.20;;;12.90;99.90;;;;;;4850703;29;20697;-77
2024/01/02 11:22:34;;;;;;;2.47;2.38;;;13.10;99.90;;;;;;4848485;29;20041;-76
2024/01/02 11:25:05;;;;;;;0.20;0.20;;;13.10;99.90;;;;;;4872566;29;20709;-76
2024/01/02 11:27:31;;;;;;;1.00;1.00;;;13.00;99.90;;;;;;4939199;28;20038;-75
2024/01/02 11:30:02;;;;;;;18.52;4.93;;;13.00;99.90;;;;;;5001976;28;20021;-77
2024/01/02 11:32:45;;;;;;;1.38;1.38;;;12.90;99.90;;;;;;4984706;28;20065;-76
2024/01/02 11:35:12;;;;;;;1.08;1.08;;;12.50;99.90;;;;;;5001826;28;20128;-76
2024/01/02 11:37:40;;;;;;;0.20;0.20;;;12.60;99.90;;;;;;5001692;28;20523;-74
2024/01/02 11:40:15;;;;;;;0.30;0.30;;;12.60;99.90;;;;;;4993766;28;20025;-76
2024/01/02 11:42:56;;;;;;;0.20;0.20;;;13.10;99.90;;;;;;5023654;28;20013;-76
2024/01/02 11:45:26;;;;;;;0.20;0.20;;;12.40;99.90;;;;;;5041157;28;20025;-79
2024/01/02 11:48:09;;;;;;;0.20;0.20;;;12.60;99.90;;;;;;5040772;28;20021;-76
2024/01/02 11:50:57;;;;;;;0.20;0.20;;;12.80;99.90;;;;;;5024173;28;20052;-77
2024/01/02 11:53:51;;;;;;;0.57;0.57;;;12.90;99.90;;;;;;5041549;28;20009;-76
2024/01/02 11:56:18;;;;;;;2.42;2.30;;;13.00;99.90;;;;;;5040777;28;20033;-76
2024/01/02 11:58:51;;;;;;;0.50;0.50;;;13.20;99.90;;;;;;5041088;28;20028;-76
2024/01/02 12:01:53;;;;;;;0.20;0.20;;;11.80;99.90;;;;;;5042378;28;20017;-76
2024/01/02 12:04:40;;;;;;;0.20;0.20;;;13.20;99.90;;;;;;4941450;29;20242;-80
2024/01/02 12:07:28;;;;;;;0.20;0.20;;;13.30;99.90;;;;;;4939970;29;20084;-76
2024/01/02 12:09:56;;;;;;;0.20;0.20;;;13.60;99.90;;;;;;4940040;29;20115;-76
2024/01/02 12:12:37;;;;;;;0.20;0.20;;;13.80;99.90;;;;;;4940280;29;20107;-76
2024/01/02 12:15:10;;;;;;;0.20;0.20;;;13.80;99.90;;;;;;4923617;29;20823;-76
2024/01/02 12:18:00;;;;;;;4.85;4.55;;;14.00;99.90;;;;;;4939545;29;20027;-77
2024/01/02 12:20:27;;;;;;;0.50;0.50;;;13.90;99.90;;;;;;4939221;28;20582;-74
2024/01/02 12:22:53;;;;;;;0.20;0.20;;;13.70;99.90;;;;;;4939807;29;20034;-76
2024/01/02 12:25:19;;;;;;;20.48;7.13;;;13.60;99.90;;;;;;4939630;29;20031;-76
2024/01/02 12:27:49;;;;;;;0.20;0.20;;;13.70;99.90;;;;;;4939624;29;20027;-74
2024/01/02 12:30:33;;;;;;;0.20;0.20;;;13.80;99.90;;;;;;4939572;28;20086;-76
2024/01/02 12:33:14;;;;;;;0.80;0.80;;;13.90;99.90;;;;;;4939850;29;20343;-77
2024/01/02 12:35:57;;;;;;;0.10;0.10;;;13.80;99.90;;;;;;4923912;29;20036;-82
2024/01/02 12:38:25;;;;;;;0.68;0.68;;;14.00;99.90;;;;;;4939368;29;20043;-76
2024/01/02 12:40:55;;;;;;;0.15;0.15;;;14.00;99.90;;;;;;4976357;28;20021;-76
2024/01/02 12:43:29;;;;;;;0.30;0.30;;;14.00;99.90;;;;;;5040470;28;20198;-76
2024/01/02 12:46:14;;;;;;;0.20;0.20;;;14.10;99.90;;;;;;5039851;28;20025;-76
2024/01/02 12:48:54;;;;;;;0.20;0.20;;;14.10;99.90;;;;;;5039913;28;20028;-82
2024/01/02 12:51:23;;;;;;;0.55;0.55;;;15.70;99.90;;;;;;5039974;28;20253;-76
2024/01/02 12:53:52;;;;;;;0.20;0.20;;;14.20;99.90;;;;;;5040368;28;20096;-80
2024/01/02 12:56:24;;;;;;;0.10;0.10;;;14.10;99.90;;;;;;5039572;28;20187;-76
2024/01/02 12:58:52;;;;;;;0.20;0.20;;;14.10;99.80;;;;;;5022058;28;20655;-76
2024/01/02 13:01:19;;;;;;;0.20;0.20;;;14.00;99.60;;;;;;5040278;28;20595;-76
2024/01/02 13:03:47;;;;;;;0.20;0.20;;;13.90;99.50;;;;;;5039990;28;20642;-76
2024/01/02 13:06:13;;;;;;;7.35;3.45;;;13.70;99.90;;;;;;5041119;28;20041;-76
2024/01/02 13:08:40;;;;;;;0.20;0.20;;;13.70;99.90;;;;;;5039477;28;20013;-76
2024/01/02 13:11:06;;;;;;;0.20;0.20;;;13.70;99.90;;;;;;5039590;28;20053;-80
2024/01/02 13:13:32;;;;;;;0.20;0.20;;;13.50;99.90;;;;;;5039494;28;20548;-84
2024/01/02 13:16:00;;;;;;;0.20;0.20;;;13.50;99.90;;;;;;5039462;28;20045;-84